createdAt,value
2023-09-25T00:02:10.101Z,11.60
2023-09-25T00:04:37.891Z,11.60
2023-09-25T00:07:11.594Z,11.60
2023-09-25T00:09:39.734Z,11.60
2023-09-25T00:12:08.144Z,11.60
2023-09-25T00:14:35.927Z,11.60
2023-09-25T00:17:06.935Z,11.60
2023-09-25T00:19:34.616Z,11.60
2023-09-25T00:22:02.929Z,11.40
2023-09-25T00:24:30.538Z,11.40
2023-09-25T00:26:57.985Z,11.40
2023-09-25T00:29:32.890Z,11.30
2023-09-25T00:32:00.519Z,11.30
2023-09-25T00:34:30.537Z,11.30
2023-09-25T00:36:58.489Z,11.30
2023-09-25T00:39:25.921Z,11.30
2023-09-25T00:41:53.572Z,11.20
2023-09-25T00:44:30.478Z,11.30
2023-09-25T00:46:58.672Z,11.20
2023-09-25T00:49:29.471Z,11.20
2023-09-25T00:51:59.470Z,11.10
2023-09-25T00:54:41.467Z,11.20
2023-09-25T00:57:18.475Z,11.10
2023-09-25T00:59:49.357Z,11.10
2023-09-25T01:02:20.456Z,11.00
2023-09-25T01:04:50.785Z,11.00
2023-09-25T01:07:40.473Z,10.90
2023-09-25T01:10:15.891Z,11.00
2023-09-25T01:12:54.547Z,10.90
2023-09-25T01:15:26.693Z,10.90
2023-09-25T01:17:54.654Z,11.10
2023-09-25T01:20:24.028Z,11.00
2023-09-25T01:22:58.596Z,11.00
2023-09-25T01:25:26.117Z,10.90
2023-09-25T01:27:54.756Z,10.90
2023-09-25T01:30:22.911Z,11.00
2023-09-25T01:32:53.276Z,10.90
2023-09-25T01:35:25.288Z,10.90
2023-09-25T01:38:01.328Z,10.90
2023-09-25T01:40:29.258Z,10.90
2023-09-25T01:42:57.063Z,10.90
2023-09-25T01:45:24.816Z,10.80
2023-09-25T01:47:55.088Z,10.80
2023-09-25T01:50:28.687Z,10.80
2023-09-25T01:53:03.153Z,10.80
2023-09-25T01:55:38.034Z,10.90
2023-09-25T01:58:07.851Z,10.80
2023-09-25T02:00:42.118Z,10.70
2023-09-25T02:03:10.048Z,10.80
2023-09-25T02:05:38.123Z,10.80
2023-09-25T02:08:06.015Z,10.70
2023-09-25T02:10:35.795Z,10.80
2023-09-25T02:13:03.645Z,10.70
2023-09-25T02:15:31.328Z,10.70
2023-09-25T02:17:59.198Z,10.60
2023-09-25T02:20:27.250Z,10.70
2023-09-25T02:22:55.047Z,10.60
2023-09-25T02:25:22.286Z,10.70
2023-09-25T02:27:50.394Z,10.60
2023-09-25T02:30:18.346Z,10.60
2023-09-25T02:32:47.022Z,10.70
2023-09-25T02:35:15.090Z,10.70
2023-09-25T02:37:46.245Z,10.60
2023-09-25T02:40:16.988Z,10.60
2023-09-25T02:42:49.036Z,10.60
2023-09-25T02:45:18.135Z,10.50
2023-09-25T02:47:48.088Z,10.50
2023-09-25T02:50:16.971Z,10.50
2023-09-25T02:52:49.604Z,10.50
2023-09-25T02:55:16.925Z,10.50
2023-09-25T02:57:47.859Z,10.40
2023-09-25T03:00:18.698Z,10.50
2023-09-25T03:02:46.824Z,10.40
2023-09-25T03:05:17.308Z,10.40
2023-09-25T03:07:49.154Z,10.30
2023-09-25T03:10:17.218Z,10.40
2023-09-25T03:12:46.595Z,10.30
2023-09-25T03:15:14.356Z,10.40
2023-09-25T03:17:43.935Z,10.40
2023-09-25T03:20:17.725Z,10.30
2023-09-25T03:22:52.792Z,10.30
2023-09-25T03:25:21.400Z,10.30
2023-09-25T03:27:51.078Z,10.30
2023-09-25T03:30:18.939Z,10.30
2023-09-25T03:32:46.526Z,10.30
2023-09-25T03:35:18.633Z,10.30
2023-09-25T03:37:46.379Z,10.30
2023-09-25T03:40:14.417Z,10.20
2023-09-25T03:42:44.852Z,10.30
2023-09-25T03:45:15.976Z,10.20
2023-09-25T03:47:43.342Z,10.30
2023-09-25T03:50:12.279Z,10.30
2023-09-25T03:52:39.962Z,10.30
2023-09-25T03:55:11.037Z,10.30
2023-09-25T03:57:38.216Z,10.20
2023-09-25T04:00:13.605Z,10.30
2023-09-25T04:02:41.370Z,10.30
2023-09-25T04:05:15.006Z,10.30
2023-09-25T04:07:42.794Z,10.20
2023-09-25T04:10:10.745Z,10.30
2023-09-25T04:12:41.000Z,10.20
2023-09-25T04:15:14.173Z,10.20
2023-09-25T04:17:42.786Z,10.20
2023-09-25T04:20:19.218Z,10.10
2023-09-25T04:22:49.609Z,10.10
2023-09-25T04:25:20.802Z,10.20
2023-09-25T04:27:55.597Z,10.20
2023-09-25T04:30:31.478Z,10.20
2023-09-25T04:32:58.878Z,10.10
2023-09-25T04:35:26.708Z,10.20
2023-09-25T04:37:55.725Z,10.30
2023-09-25T04:40:26.531Z,10.30
2023-09-25T04:42:54.687Z,10.40
2023-09-25T04:45:29.894Z,10.40
2023-09-25T04:47:59.707Z,10.50
2023-09-25T04:50:27.428Z,10.50
2023-09-25T04:52:55.441Z,10.50
2023-09-25T04:55:24.252Z,10.70
2023-09-25T04:57:52.406Z,10.70
2023-09-25T05:00:26.622Z,10.80
2023-09-25T05:02:58.369Z,10.90
2023-09-25T05:05:29.118Z,10.90
2023-09-25T05:07:59.301Z,10.90
2023-09-25T05:10:49.740Z,11.00
2023-09-25T05:13:19.515Z,11.10
2023-09-25T05:15:50.606Z,11.30
2023-09-25T05:18:20.324Z,11.30
2023-09-25T05:20:50.421Z,11.50
2023-09-25T05:23:24.355Z,11.40
2023-09-25T05:26:02.348Z,11.60
2023-09-25T05:28:33.176Z,11.60
2023-09-25T05:31:12.116Z,11.70
2023-09-25T05:34:03.488Z,11.80
2023-09-25T05:36:41.244Z,11.90
2023-09-25T05:39:40.542Z,12.00
2023-09-25T05:42:31.926Z,12.00
2023-09-25T05:45:02.787Z,12.10
2023-09-25T05:47:35.926Z,12.20
2023-09-25T05:50:08.124Z,12.30
2023-09-25T05:52:39.445Z,12.40
2023-09-25T05:55:08.498Z,12.40
2023-09-25T05:57:40.754Z,12.60
2023-09-25T06:00:36.140Z,12.90
2023-09-25T06:03:24.083Z,13.50
2023-09-25T06:06:13.782Z,14.70
2023-09-25T06:08:46.182Z,16.40
2023-09-25T06:11:24.866Z,18.10
2023-09-25T06:14:09.963Z,19.70
2023-09-25T06:20:38.780Z,22.50
2023-09-25T06:23:16.159Z,23.70
2023-09-25T06:26:04.905Z,24.60
2023-09-25T06:28:52.173Z,25.20
2023-09-25T06:31:20.790Z,25.80
2023-09-25T06:33:55.981Z,26.50
2023-09-25T06:36:46.829Z,27.20
2023-09-25T06:39:20.115Z,27.80
2023-09-25T06:42:09.037Z,28.50
2023-09-25T06:47:56.455Z,30.30
2023-09-25T06:50:33.158Z,31.20
2023-09-25T06:53:27.072Z,32.00
2023-09-25T06:56:04.278Z,32.50
2023-09-25T06:58:42.591Z,33.10
2023-09-25T07:04:24.983Z,33.80
2023-09-25T07:13:14.410Z,33.60
2023-09-25T07:16:50.106Z,33.50
2023-09-25T07:19:19.843Z,33.50
2023-09-25T07:22:03.962Z,33.50
2023-09-25T07:25:08.627Z,34.00
2023-09-25T07:30:18.148Z,35.40
2023-09-25T07:33:03.071Z,35.70
2023-09-25T07:35:51.975Z,35.80
2023-09-25T07:38:32.025Z,35.50
2023-09-25T07:41:22.476Z,35.90
2023-09-25T07:44:27.895Z,36.30
2023-09-25T07:47:09.157Z,36.10
2023-09-25T07:49:46.537Z,35.30
2023-09-25T07:52:22.323Z,34.20
2023-09-25T07:54:54.715Z,33.50
2023-09-25T07:57:25.472Z,32.80
2023-09-25T08:00:18.904Z,32.00
2023-09-25T08:03:01.742Z,31.30
2023-09-25T08:06:12.278Z,30.30
2023-09-25T08:08:50.655Z,29.50
2023-09-25T08:11:28.152Z,29.10
2023-09-25T08:15:27.632Z,28.70
2023-09-25T08:17:39.316Z,28.30
2023-09-25T08:20:27.636Z,28.00
2023-09-25T08:23:04.858Z,28.50
2023-09-25T08:25:41.621Z,29.10
2023-09-25T08:28:33.165Z,30.00
2023-09-25T08:31:25.609Z,31.00
2023-09-25T08:33:56.224Z,31.70
2023-09-25T08:36:41.246Z,32.30
2023-09-25T08:42:02.803Z,33.20
2023-09-25T08:44:36.233Z,33.00
2023-09-25T08:47:06.529Z,32.90
2023-09-25T08:49:59.860Z,32.90
2023-09-25T08:52:32.800Z,33.00
2023-09-25T08:55:20.704Z,32.80
2023-09-25T08:58:19.878Z,32.70
2023-09-25T09:00:50.319Z,32.50
2023-09-25T09:03:50.102Z,32.30
2023-09-25T09:06:30.421Z,32.20
2023-09-25T09:09:11.162Z,32.70
2023-09-25T09:11:44.109Z,33.20
2023-09-25T09:15:09.849Z,33.70
2023-09-25T09:17:43.345Z,34.30
2023-09-25T09:20:27.691Z,34.80
2023-09-25T09:23:12.623Z,35.00
2023-09-25T09:26:09.006Z,35.00
2023-09-25T09:28:53.038Z,34.90
2023-09-25T09:35:03.894Z,35.30
2023-09-25T09:37:43.741Z,35.60
2023-09-25T09:40:18.943Z,35.60
2023-09-25T09:42:54.657Z,35.20
2023-09-25T09:46:02.014Z,34.30
2023-09-25T09:49:14.302Z,34.00
2023-09-25T09:52:05.900Z,33.30
2023-09-25T09:54:56.782Z,32.30
2023-09-25T09:58:00.762Z,31.60
2023-09-25T10:00:32.263Z,30.80
2023-09-25T10:03:01.739Z,29.90
2023-09-25T10:06:21.401Z,29.10
2023-09-25T10:09:09.268Z,28.20
2023-09-25T10:12:01.021Z,27.50
2023-09-25T10:14:40.754Z,26.90
2023-09-25T10:17:08.580Z,26.70
2023-09-25T10:19:52.153Z,26.90
2023-09-25T10:23:01.427Z,27.00
2023-09-25T10:26:12.035Z,27.10
2023-09-25T10:28:45.296Z,27.30
2023-09-25T10:31:27.864Z,27.40
2023-09-25T10:34:04.669Z,27.20
2023-09-25T10:36:41.282Z,27.00
2023-09-25T10:39:17.077Z,26.90
2023-09-25T10:41:48.320Z,26.80
2023-09-25T10:44:39.332Z,26.90
2023-09-25T10:47:14.188Z,26.70
2023-09-25T10:49:53.667Z,26.30
2023-09-25T10:52:34.120Z,25.80
2023-09-25T10:55:03.309Z,25.60
2023-09-25T10:57:33.089Z,25.50
2023-09-25T11:00:14.408Z,25.20
2023-09-25T11:02:45.312Z,25.20
2023-09-25T11:05:37.949Z,25.00
2023-09-25T11:11:18.250Z,24.60
2023-09-25T11:13:54.583Z,24.60
2023-09-25T11:16:30.544Z,24.40
2023-09-25T11:19:28.983Z,24.20
2023-09-25T11:22:31.608Z,24.20
2023-09-25T11:25:50.436Z,24.20
2023-09-25T11:28:45.822Z,24.00
2023-09-25T11:31:29.487Z,23.90
2023-09-25T11:34:09.518Z,23.80
2023-09-25T11:36:58.973Z,23.80
2023-09-25T11:39:33.953Z,23.70
2023-09-25T11:42:18.924Z,23.50
2023-09-25T11:44:56.401Z,23.40
2023-09-25T11:47:33.287Z,23.00
2023-09-25T11:50:33.534Z,22.80
2023-09-25T11:53:09.122Z,22.70
2023-09-25T11:55:54.438Z,22.80
2023-09-25T11:58:27.156Z,22.90
2023-09-25T12:01:02.008Z,23.10
2023-09-25T12:03:29.454Z,23.30
2023-09-25T12:05:59.422Z,23.40
2023-09-25T12:08:26.820Z,23.50
2023-09-25T12:10:59.234Z,23.60
2023-09-25T12:17:13.611Z,23.70
2023-09-25T12:20:19.855Z,23.70
2023-09-25T12:22:48.313Z,23.80
2023-09-25T12:33:36.884Z,23.70
2023-09-25T12:40:17.449Z,23.60
2023-09-25T12:43:12.466Z,23.40
2023-09-25T12:45:43.565Z,23.10
2023-09-25T12:51:18.418Z,22.70
2023-09-25T12:53:48.190Z,22.40
2023-09-25T12:56:21.379Z,22.10
2023-09-25T12:58:49.536Z,21.90
2023-09-25T13:04:37.151Z,21.70
2023-09-25T13:07:25.663Z,21.70
2023-09-25T13:10:09.249Z,21.80
2023-09-25T13:13:35.134Z,22.00
2023-09-25T13:16:19.466Z,22.20
2023-09-25T13:19:21.774Z,22.30
2023-09-25T13:21:55.891Z,22.50
2023-09-25T13:24:32.684Z,22.70
2023-09-25T13:27:00.628Z,23.00
2023-09-25T13:29:28.319Z,23.10
2023-09-25T13:31:59.218Z,23.10
2023-09-25T13:34:28.304Z,22.90
2023-09-25T13:40:04.205Z,22.60
2023-09-25T13:42:42.643Z,22.40
2023-09-25T13:45:17.246Z,22.20
2023-09-25T13:47:49.385Z,21.90
2023-09-25T13:50:20.897Z,21.90
2023-09-25T13:52:54.369Z,21.60
2023-09-25T13:55:30.219Z,21.40
2023-09-25T13:57:59.218Z,21.10
2023-09-25T14:00:30.012Z,20.80
2023-09-25T14:03:08.226Z,20.70
2023-09-25T14:05:46.752Z,20.40
2023-09-25T14:08:21.195Z,20.20
2023-09-25T14:10:51.867Z,20.20
2023-09-25T14:13:21.937Z,19.90
2023-09-25T14:15:52.014Z,19.70
2023-09-25T14:18:20.345Z,19.70
2023-09-25T14:20:51.138Z,19.60
2023-09-25T14:23:19.104Z,19.60
2023-09-25T14:25:46.631Z,19.60
2023-09-25T14:28:14.420Z,19.50
2023-09-25T14:30:42.233Z,19.50
2023-09-25T14:33:10.373Z,19.50
2023-09-25T14:35:40.700Z,19.50
2023-09-25T14:38:09.270Z,19.60
2023-09-25T14:40:36.649Z,19.50
2023-09-25T14:43:05.309Z,19.50
2023-09-25T14:45:32.693Z,19.50
2023-09-25T14:48:00.258Z,19.40
2023-09-25T14:50:27.621Z,19.40
2023-09-25T14:52:55.380Z,19.40
2023-09-25T14:55:25.983Z,19.30
2023-09-25T14:57:54.034Z,19.30
2023-09-25T15:00:21.809Z,19.30
2023-09-25T15:02:50.063Z,19.30
2023-09-25T15:05:18.055Z,19.30
2023-09-25T15:07:46.649Z,19.30
2023-09-25T15:10:13.921Z,19.30
2023-09-25T15:12:41.584Z,19.20
2023-09-25T15:15:09.700Z,19.20
2023-09-25T15:17:37.613Z,19.10
2023-09-25T15:20:07.137Z,19.10
2023-09-25T15:22:34.584Z,19.10
2023-09-25T15:25:02.240Z,19.10
2023-09-25T15:27:31.649Z,19.00
2023-09-25T15:29:59.234Z,19.00
2023-09-25T15:32:28.238Z,18.90
2023-09-25T15:34:55.573Z,18.80
2023-09-25T15:37:23.686Z,18.80
2023-09-25T15:39:51.807Z,18.70
2023-09-25T15:42:19.536Z,18.60
2023-09-25T15:44:47.431Z,18.50
2023-09-25T15:47:15.645Z,18.40
2023-09-25T15:49:43.850Z,18.30
2023-09-25T15:52:29.674Z,18.20
2023-09-25T15:55:02.507Z,18.10
2023-09-25T15:57:32.849Z,18.10
2023-09-25T16:00:00.436Z,17.80
2023-09-25T16:02:28.010Z,17.70
2023-09-25T16:04:55.615Z,17.60
2023-09-25T16:07:29.315Z,17.50
2023-09-25T16:10:03.245Z,17.30
2023-09-25T16:12:32.210Z,17.30
2023-09-25T16:14:59.742Z,17.20
2023-09-25T16:17:28.014Z,17.20
2023-09-25T16:19:55.276Z,17.10
2023-09-25T16:22:23.039Z,17.00
2023-09-25T16:24:50.809Z,16.90
2023-09-25T16:27:18.136Z,16.80
2023-09-25T16:29:45.725Z,16.70
2023-09-25T16:32:12.974Z,16.70
2023-09-25T16:34:40.334Z,16.70
2023-09-25T16:37:08.410Z,16.50
2023-09-25T16:39:35.592Z,16.50
2023-09-25T16:42:03.432Z,16.40
2023-09-25T16:44:36.423Z,16.30
2023-09-25T16:47:03.887Z,16.20
2023-09-25T16:49:31.511Z,16.20
2023-09-25T16:51:59.738Z,16.20
2023-09-25T16:54:27.332Z,16.10
2023-09-25T16:56:54.511Z,16.10
2023-09-25T17:02:27.040Z,15.90
2023-09-25T17:04:57.506Z,15.90
2023-09-25T17:07:25.130Z,16.00
2023-09-25T17:09:58.589Z,15.90
2023-09-25T17:12:29.045Z,15.90
2023-09-25T17:14:56.331Z,15.90
2023-09-25T17:17:25.544Z,15.90
2023-09-25T17:19:54.920Z,15.80
2023-09-25T17:22:22.282Z,15.70
2023-09-25T17:24:49.920Z,15.70
2023-09-25T17:27:20.297Z,15.60
2023-09-25T17:29:47.944Z,15.60
2023-09-25T17:32:15.349Z,15.50
2023-09-25T17:34:45.993Z,15.50
2023-09-25T17:37:16.070Z,15.30
2023-09-25T17:39:46.817Z,15.30
2023-09-25T17:42:13.991Z,15.20
2023-09-25T17:44:42.052Z,15.10
2023-09-25T17:47:09.750Z,15.10
2023-09-25T17:49:38.388Z,15.00
2023-09-25T17:52:21.807Z,15.00
2023-09-25T17:54:51.820Z,15.00
2023-09-25T17:57:20.350Z,14.80
2023-09-25T17:59:50.656Z,14.80
2023-09-25T18:02:21.561Z,14.80
2023-09-25T18:04:48.738Z,14.80
2023-09-25T18:07:16.805Z,14.80
2023-09-25T18:09:45.482Z,14.70
2023-09-25T18:12:12.689Z,14.70
2023-09-25T18:14:40.052Z,14.60
2023-09-25T18:17:07.781Z,14.70
2023-09-25T18:19:38.280Z,14.60
2023-09-25T18:22:08.621Z,14.60
2023-09-25T18:24:36.333Z,14.50
2023-09-25T18:27:05.331Z,14.50
2023-09-25T18:29:33.572Z,14.40
2023-09-25T18:32:01.198Z,14.50
2023-09-25T18:34:28.362Z,14.50
2023-09-25T18:36:56.179Z,14.40
2023-09-25T18:39:27.053Z,14.40
2023-09-25T18:41:55.444Z,14.30
2023-09-25T18:44:24.308Z,14.30
2023-09-25T18:46:54.311Z,14.30
2023-09-25T18:49:22.681Z,14.30
2023-09-25T18:51:53.085Z,14.20
2023-09-25T18:54:20.931Z,14.30
2023-09-25T18:56:51.638Z,14.20
2023-09-25T18:59:21.472Z,14.20
2023-09-25T19:01:49.238Z,14.20
2023-09-25T19:04:16.996Z,14.10
2023-09-25T19:06:46.622Z,14.10
2023-09-25T19:09:16.143Z,14.00
2023-09-25T19:11:46.769Z,14.00
2023-09-25T19:14:16.791Z,14.00
2023-09-25T19:16:45.382Z,13.90
2023-09-25T19:19:15.563Z,14.00
2023-09-25T19:21:43.073Z,13.90
2023-09-25T19:24:15.713Z,14.00
2023-09-25T19:26:43.240Z,13.90
2023-09-25T19:29:10.525Z,13.90
2023-09-25T19:31:42.163Z,13.90
2023-09-25T19:34:11.678Z,13.80
2023-09-25T19:36:42.491Z,13.80
2023-09-25T19:39:10.265Z,13.80
2023-09-25T19:41:37.721Z,13.70
2023-09-25T19:44:08.738Z,13.70
2023-09-25T19:46:39.844Z,13.70
2023-09-25T19:49:07.613Z,13.80
2023-09-25T19:51:40.022Z,13.60
2023-09-25T19:54:08.105Z,13.70
2023-09-25T19:56:35.528Z,13.60
2023-09-25T19:59:03.495Z,13.60
2023-09-25T20:01:31.271Z,13.60
2023-09-25T20:03:58.796Z,13.60
2023-09-25T20:06:27.843Z,13.60
2023-09-25T20:08:56.371Z,13.50
2023-09-25T20:11:23.631Z,13.50
2023-09-25T20:13:53.444Z,13.60
2023-09-25T20:16:24.273Z,13.40
2023-09-25T20:18:52.014Z,13.50
2023-09-25T20:21:19.392Z,13.40
2023-09-25T20:23:47.727Z,13.50
2023-09-25T20:26:15.193Z,13.40
2023-09-25T20:28:45.175Z,13.40
2023-09-25T20:31:13.103Z,13.40
2023-09-25T20:33:43.012Z,13.40
2023-09-25T20:36:10.692Z,13.30
2023-09-25T20:38:38.715Z,13.30
2023-09-25T20:41:06.776Z,13.30
2023-09-25T20:43:35.963Z,13.30
2023-09-25T20:46:03.967Z,13.30
2023-09-25T20:48:33.102Z,13.20
2023-09-25T20:51:03.680Z,13.30
2023-09-25T20:53:30.983Z,13.20
2023-09-25T20:55:58.421Z,13.10
2023-09-25T20:58:25.787Z,13.10
2023-09-25T21:00:56.952Z,13.10
2023-09-25T21:03:25.638Z,13.10
2023-09-25T21:05:55.394Z,13.10
2023-09-25T21:08:22.592Z,13.10
2023-09-25T21:10:50.184Z,13.10
2023-09-25T21:13:20.640Z,13.00
2023-09-25T21:15:48.274Z,13.00
2023-09-25T21:18:18.084Z,13.00
2023-09-25T21:20:48.313Z,12.90
2023-09-25T21:23:15.593Z,12.90
2023-09-25T21:25:45.642Z,13.00
2023-09-25T21:28:13.689Z,12.80
2023-09-25T21:30:42.110Z,12.90
2023-09-25T21:33:09.550Z,12.90
2023-09-25T21:35:37.534Z,12.80
2023-09-25T21:38:05.380Z,12.80
2023-09-25T21:40:32.929Z,12.80
2023-09-25T21:43:00.212Z,12.90
2023-09-25T21:45:27.470Z,12.80
2023-09-25T21:47:55.038Z,12.80
2023-09-25T21:50:22.576Z,12.80
2023-09-25T21:52:49.841Z,12.70
2023-09-25T21:55:18.592Z,12.80
2023-09-25T21:57:47.053Z,12.70
2023-09-25T22:00:17.902Z,12.70
2023-09-25T22:02:45.413Z,12.70
2023-09-25T22:05:12.930Z,12.70
2023-09-25T22:07:40.751Z,12.80
2023-09-25T22:10:12.085Z,12.80
2023-09-25T22:12:41.888Z,12.80
2023-09-25T22:15:12.625Z,12.90
2023-09-25T22:17:40.509Z,12.90
2023-09-25T22:20:14.423Z,13.00
2023-09-25T22:22:42.064Z,12.90
2023-09-25T22:25:11.304Z,12.90
2023-09-25T22:27:38.656Z,12.90
2023-09-25T22:30:08.348Z,12.80
2023-09-25T22:32:36.004Z,12.80
2023-09-25T22:35:05.622Z,12.80
2023-09-25T22:37:40.052Z,12.70
2023-09-25T22:40:27.421Z,12.70
2023-09-25T22:42:56.525Z,12.70
2023-09-25T22:45:23.812Z,12.70
2023-09-25T22:47:51.068Z,12.60
2023-09-25T22:50:18.363Z,12.60
2023-09-25T22:52:46.038Z,12.60
2023-09-25T22:55:13.291Z,12.50
2023-09-25T22:57:41.049Z,12.50
2023-09-25T23:02:58.970Z,12.40
2023-09-25T23:05:27.415Z,12.40
2023-09-25T23:08:01.263Z,12.40
2023-09-25T23:10:29.906Z,12.40
2023-09-25T23:12:57.201Z,12.40
2023-09-25T23:15:24.875Z,12.40
2023-09-25T23:17:52.862Z,12.30
2023-09-25T23:20:24.813Z,12.30
2023-09-25T23:22:59.883Z,12.40
2023-09-25T23:25:28.362Z,12.30
2023-09-25T23:27:56.611Z,12.20
2023-09-25T23:30:24.939Z,12.20
2023-09-25T23:32:52.937Z,12.30
2023-09-25T23:35:23.762Z,12.20
2023-09-25T23:37:51.888Z,12.20
2023-09-25T23:40:28.244Z,12.20
2023-09-25T23:42:55.678Z,12.10
2023-09-25T23:45:23.641Z,12.20
2023-09-25T23:47:54.739Z,12.10
2023-09-25T23:50:25.367Z,12.20
2023-09-25T23:52:57.902Z,12.20
2023-09-25T23:55:25.664Z,12.20
2023-09-25T23:57:53.018Z,12.20
